createdAt,value
2018-06-11T00:01:49.388Z,99.90
2018-06-11T00:04:18.418Z,99.90
2018-06-11T00:06:47.531Z,99.90
2018-06-11T00:09:16.593Z,99.90
2018-06-11T00:11:45.653Z,99.90
2018-06-11T00:14:14.691Z,99.90
2018-06-11T00:16:43.759Z,99.90
2018-06-11T00:19:12.828Z,99.90
2018-06-11T00:21:41.980Z,99.90
2018-06-11T00:24:11.020Z,99.90
2018-06-11T00:26:40.084Z,99.90
2018-06-11T00:29:09.153Z,99.90
2018-06-11T00:31:38.225Z,99.90
2018-06-11T00:34:07.261Z,99.90
2018-06-11T00:36:36.399Z,99.90
2018-06-11T00:39:08.142Z,99.90
2018-06-11T00:41:37.235Z,99.90
2018-06-11T00:44:06.307Z,99.90
2018-06-11T00:46:35.337Z,99.90
2018-06-11T00:49:04.467Z,99.90
2018-06-11T00:51:33.552Z,99.90
2018-06-11T00:54:02.632Z,99.90
2018-06-11T00:56:31.668Z,99.90
2018-06-11T00:59:00.733Z,99.90
2018-06-11T01:01:29.763Z,99.90
2018-06-11T01:03:58.827Z,99.90
2018-06-11T01:06:27.859Z,99.90
2018-06-11T01:08:56.951Z,99.90
2018-06-11T01:11:26.054Z,99.90
2018-06-11T01:13:55.114Z,99.90
2018-06-11T01:16:24.157Z,99.90
2018-06-11T01:18:53.219Z,99.90
2018-06-11T01:21:22.272Z,99.90
2018-06-11T01:23:51.419Z,99.90
2018-06-11T01:26:20.532Z,99.90
2018-06-11T01:28:49.598Z,99.90
2018-06-11T01:31:18.712Z,99.90
2018-06-11T01:33:47.736Z,99.90
2018-06-11T01:36:16.764Z,99.90
2018-06-11T01:38:45.851Z,99.90
2018-06-11T01:41:14.875Z,99.90
2018-06-11T01:43:43.927Z,99.90
2018-06-11T01:46:12.961Z,99.90
2018-06-11T01:48:42.016Z,99.90
2018-06-11T01:51:11.089Z,99.90
2018-06-11T01:53:40.156Z,99.90
2018-06-11T01:56:09.207Z,99.90
2018-06-11T01:58:38.269Z,99.90
2018-06-11T02:01:07.296Z,99.90
2018-06-11T02:03:36.359Z,99.90
2018-06-11T02:06:05.398Z,99.90
2018-06-11T02:08:34.436Z,99.90
2018-06-11T02:11:03.495Z,99.90
2018-06-11T02:16:01.213Z,99.90
2018-06-11T02:18:30.267Z,99.90
2018-06-11T02:20:59.344Z,99.90
2018-06-11T02:23:28.379Z,99.90
2018-06-11T02:25:57.442Z,99.90
2018-06-11T02:28:26.463Z,99.90
2018-06-11T02:30:55.520Z,99.90
2018-06-11T02:33:24.555Z,99.90
2018-06-11T02:35:53.653Z,99.90
2018-06-11T02:38:22.700Z,99.90
2018-06-11T02:40:51.764Z,99.90
2018-06-11T02:43:20.805Z,99.90
2018-06-11T02:45:49.865Z,99.90
2018-06-11T02:48:18.914Z,99.90
2018-06-11T02:50:47.987Z,99.90
2018-06-11T02:53:17.024Z,99.90
2018-06-11T02:55:46.107Z,99.90
2018-06-11T02:58:15.180Z,99.90
2018-06-11T03:00:44.253Z,99.90
2018-06-11T03:05:42.008Z,99.90
2018-06-11T03:08:11.101Z,99.90
2018-06-11T03:10:40.211Z,99.90
2018-06-11T03:13:09.261Z,99.90
2018-06-11T03:15:38.349Z,99.90
2018-06-11T03:18:07.388Z,99.90
2018-06-11T03:20:36.462Z,99.90
2018-06-11T03:23:05.560Z,99.90
2018-06-11T03:25:34.608Z,99.90
2018-06-11T03:28:03.696Z,99.90
2018-06-11T03:30:32.764Z,99.90
2018-06-11T03:33:01.827Z,99.90
2018-06-11T03:35:30.884Z,99.90
2018-06-11T03:38:00.007Z,99.90
2018-06-11T03:40:29.075Z,99.90
2018-06-11T03:42:58.192Z,99.90
2018-06-11T03:45:27.269Z,99.90
2018-06-11T03:47:56.292Z,99.90
2018-06-11T03:50:25.348Z,99.90
2018-06-11T03:52:54.375Z,99.90
2018-06-11T03:55:23.445Z,99.90
2018-06-11T03:57:52.493Z,99.90
2018-06-11T04:00:21.556Z,99.90
2018-06-11T04:02:50.589Z,99.90
2018-06-11T04:05:19.672Z,99.90
2018-06-11T04:07:48.740Z,99.90
2018-06-11T04:10:17.763Z,99.90
2018-06-11T04:12:46.840Z,99.90
2018-06-11T04:15:15.875Z,99.90
2018-06-11T04:17:44.936Z,99.90
2018-06-11T04:20:13.960Z,99.90
2018-06-11T04:22:43.028Z,99.90
2018-06-11T04:25:12.212Z,99.90
2018-06-11T04:27:41.257Z,99.90
2018-06-11T04:30:10.355Z,99.90
2018-06-11T04:32:39.391Z,99.90
2018-06-11T04:35:09.959Z,99.90
2018-06-11T04:37:39.036Z,99.90
2018-06-11T04:40:08.116Z,99.90
2018-06-11T04:42:37.177Z,99.90
2018-06-11T04:45:06.335Z,99.90
2018-06-11T04:47:35.419Z,99.90
2018-06-11T04:50:04.499Z,99.90
2018-06-11T04:52:33.586Z,99.90
2018-06-11T04:55:02.641Z,99.90
2018-06-11T04:57:31.726Z,99.90
2018-06-11T05:00:00.765Z,99.90
2018-06-11T05:02:29.823Z,99.90
2018-06-11T05:04:58.853Z,99.90
2018-06-11T05:07:27.908Z,99.90
2018-06-11T05:09:56.941Z,99.90
2018-06-11T05:12:25.980Z,99.90
2018-06-11T05:14:55.040Z,99.90
2018-06-11T05:17:24.091Z,99.90
2018-06-11T05:19:53.128Z,99.90
2018-06-11T05:22:22.188Z,99.90
2018-06-11T05:24:51.251Z,99.90
2018-06-11T05:27:20.277Z,99.90
2018-06-11T05:29:49.345Z,99.90
2018-06-11T05:32:18.400Z,99.90
2018-06-11T05:34:47.438Z,99.90
2018-06-11T05:37:16.500Z,99.90
2018-06-11T05:39:45.568Z,99.90
2018-06-11T05:42:14.618Z,99.90
2018-06-11T05:44:43.679Z,99.90
2018-06-11T05:47:12.705Z,99.90
2018-06-11T05:49:42.224Z,99.90
2018-06-11T05:52:11.280Z,99.90
2018-06-11T05:54:40.299Z,99.90
2018-06-11T05:57:09.395Z,99.90
2018-06-11T05:59:38.450Z,99.90
2018-06-11T06:02:07.482Z,99.90
2018-06-11T06:04:36.567Z,99.90
2018-06-11T06:07:05.623Z,99.90
2018-06-11T06:09:34.688Z,99.90
2018-06-11T06:12:03.772Z,99.90
2018-06-11T06:14:32.880Z,99.90
2018-06-11T06:17:01.915Z,99.90
2018-06-11T06:19:31.022Z,99.90
2018-06-11T06:22:00.033Z,99.90
2018-06-11T06:24:29.120Z,99.90
2018-06-11T06:26:58.157Z,99.90
2018-06-11T06:29:27.219Z,99.90
2018-06-11T06:31:56.321Z,99.90
2018-06-11T06:34:25.465Z,99.90
2018-06-11T06:36:54.501Z,99.90
2018-06-11T06:39:23.616Z,99.90
2018-06-11T06:41:52.691Z,99.90
2018-06-11T06:44:21.781Z,99.90
2018-06-11T06:46:50.827Z,99.90
2018-06-11T06:49:19.973Z,99.90
2018-06-11T06:51:49.051Z,99.90
2018-06-11T06:54:18.129Z,99.90
2018-06-11T06:56:47.301Z,99.90
2018-06-11T06:59:16.404Z,99.90
2018-06-11T07:01:45.476Z,99.90
2018-06-11T07:04:14.595Z,99.90
2018-06-11T07:06:43.652Z,99.90
2018-06-11T07:09:13.569Z,99.90
2018-06-11T07:11:42.713Z,99.90
2018-06-11T07:14:11.855Z,99.90
2018-06-11T07:16:40.984Z,99.90
2018-06-11T07:19:10.280Z,99.90
2018-06-11T07:21:39.615Z,99.90
2018-06-11T07:26:38.560Z,99.90
2018-06-11T07:29:07.657Z,99.90
2018-06-11T07:31:36.732Z,99.90
2018-06-11T07:34:05.828Z,99.90
2018-06-11T07:36:35.040Z,99.90
2018-06-11T07:39:05.440Z,99.90
2018-06-11T07:41:34.475Z,99.90
2018-06-11T07:44:03.616Z,99.90
2018-06-11T07:46:32.727Z,99.90
2018-06-11T07:49:01.760Z,99.90
2018-06-11T07:51:31.482Z,99.90
2018-06-11T07:54:01.075Z,99.90
2018-06-11T07:56:30.154Z,99.90
2018-06-11T07:58:59.244Z,99.90
2018-06-11T08:01:28.965Z,99.90
2018-06-11T08:03:58.617Z,99.90
2018-06-11T08:06:28.264Z,99.90
2018-06-11T08:08:58.556Z,99.90
2018-06-11T08:11:28.251Z,99.90
2018-06-11T08:13:57.544Z,99.90
2018-06-11T08:16:26.791Z,99.90
2018-06-11T08:18:56.150Z,99.90
2018-06-11T08:21:25.300Z,99.90
2018-06-11T08:23:54.331Z,99.90
2018-06-11T08:26:23.426Z,99.90
2018-06-11T08:28:52.664Z,99.90
2018-06-11T08:31:21.774Z,99.90
2018-06-11T08:33:50.875Z,99.90
2018-06-11T08:38:49.069Z,99.90
2018-06-11T08:41:18.171Z,99.90
2018-06-11T08:43:47.191Z,99.90
2018-06-11T08:46:16.246Z,99.90
2018-06-11T08:48:45.287Z,99.90
2018-06-11T08:51:14.351Z,99.90
2018-06-11T08:53:43.400Z,99.90
2018-06-11T08:56:12.487Z,99.90
2018-06-11T08:58:41.797Z,99.90
2018-06-11T09:01:10.985Z,99.90
2018-06-11T09:03:40.013Z,99.90
2018-06-11T09:11:06.411Z,98.90
2018-06-11T09:13:35.464Z,98.70
2018-06-11T09:16:04.677Z,97.90
2018-06-11T09:18:33.754Z,97.90
2018-06-11T09:21:02.796Z,97.20
2018-06-11T09:23:31.879Z,98.00
2018-06-11T09:26:00.921Z,98.30
2018-06-11T09:28:29.956Z,98.40
2018-06-11T09:30:59.032Z,97.60
2018-06-11T09:33:28.119Z,97.90
2018-06-11T09:35:57.135Z,98.00
2018-06-11T09:38:26.198Z,98.10
2018-06-11T09:40:55.223Z,97.20
2018-06-11T09:43:24.280Z,96.40
2018-06-11T09:45:53.355Z,96.50
2018-06-11T09:48:22.378Z,95.20
2018-06-11T09:50:51.448Z,95.00
2018-06-11T09:53:20.479Z,94.70
2018-06-11T09:55:49.633Z,94.00
2018-06-11T09:58:18.640Z,95.40
2018-06-11T10:00:47.709Z,94.70
2018-06-11T10:03:16.734Z,94.20
2018-06-11T10:05:45.803Z,94.40
2018-06-11T10:08:14.836Z,94.20
2018-06-11T10:10:43.891Z,95.20
2018-06-11T10:13:12.940Z,94.10
2018-06-11T10:15:42.044Z,93.30
2018-06-11T10:18:11.125Z,92.80
2018-06-11T10:20:40.219Z,92.90
2018-06-11T10:23:09.260Z,93.50
2018-06-11T10:25:38.288Z,93.10
2018-06-11T10:28:07.351Z,93.90
2018-06-11T10:30:36.412Z,94.10
2018-06-11T10:33:05.491Z,93.30
2018-06-11T10:35:34.559Z,91.90
2018-06-11T10:38:03.629Z,92.70
2018-06-11T10:40:32.696Z,93.20
2018-06-11T10:43:02.227Z,92.70
2018-06-11T10:45:31.260Z,91.50
2018-06-11T10:48:00.287Z,92.90
2018-06-11T10:50:29.353Z,92.40
2018-06-11T10:52:58.411Z,92.50
2018-06-11T10:55:27.474Z,93.00
2018-06-11T10:57:56.554Z,93.20
2018-06-11T11:00:25.592Z,92.50
2018-06-11T11:02:54.647Z,92.20
2018-06-11T11:05:23.668Z,91.50
2018-06-11T11:07:52.725Z,91.40
2018-06-11T11:12:50.489Z,90.50
2018-06-11T11:15:19.535Z,91.10
2018-06-11T11:17:48.592Z,90.80
2018-06-11T11:20:17.624Z,90.60
2018-06-11T11:22:46.696Z,90.00
2018-06-11T11:27:44.399Z,90.30
2018-06-11T11:30:13.432Z,90.30
2018-06-11T11:32:42.495Z,89.40
2018-06-11T11:35:11.699Z,90.80
2018-06-11T11:37:41.550Z,90.60
2018-06-11T11:40:10.675Z,89.50
2018-06-11T11:42:39.803Z,89.60
2018-06-11T11:45:09.056Z,90.30
2018-06-11T11:47:38.217Z,89.70
2018-06-11T11:50:07.455Z,89.90
2018-06-11T11:55:05.246Z,91.10
2018-06-11T11:57:34.315Z,90.10
2018-06-11T12:00:03.376Z,91.00
2018-06-11T12:02:32.545Z,90.90
2018-06-11T12:05:01.564Z,86.80
2018-06-11T12:07:30.653Z,89.20
2018-06-11T12:09:59.664Z,89.60
2018-06-11T12:12:28.678Z,90.00
2018-06-11T12:14:57.766Z,90.70
2018-06-11T12:17:26.808Z,91.20
2018-06-11T12:19:55.863Z,90.90
2018-06-11T12:22:24.893Z,90.20
2018-06-11T12:24:54.864Z,91.00
2018-06-11T12:27:23.886Z,88.20
2018-06-11T12:34:50.327Z,87.90
2018-06-11T12:37:19.357Z,87.80
2018-06-11T12:39:48.399Z,87.90
2018-06-11T12:42:17.457Z,89.10
2018-06-11T12:44:46.519Z,90.00
2018-06-11T12:47:15.538Z,88.80
2018-06-11T12:49:44.610Z,88.10
2018-06-11T12:52:13.672Z,89.00
2018-06-11T12:54:42.737Z,86.20
2018-06-11T12:57:11.781Z,88.50
2018-06-11T12:59:40.871Z,87.80
2018-06-11T13:02:09.904Z,88.80
2018-06-11T13:04:38.933Z,89.80
2018-06-11T13:07:07.988Z,90.00
2018-06-11T13:09:37.035Z,90.00
2018-06-11T13:12:06.079Z,90.30
2018-06-11T13:19:32.515Z,89.30
2018-06-11T13:22:01.608Z,89.70
2018-06-11T13:24:30.711Z,89.60
2018-06-11T13:26:59.856Z,89.30
2018-06-11T13:29:28.943Z,89.90
2018-06-11T13:31:58.045Z,90.00
2018-06-11T13:34:27.244Z,89.50
2018-06-11T13:36:56.318Z,89.40
2018-06-11T13:41:54.180Z,86.50
2018-06-11T13:44:23.263Z,86.70
2018-06-11T13:46:52.271Z,85.60
2018-06-11T13:49:21.343Z,83.90
2018-06-11T13:51:50.404Z,84.30
2018-06-11T13:54:19.480Z,82.20
2018-06-11T13:56:48.515Z,81.10
2018-06-11T13:59:17.575Z,81.60
2018-06-11T14:01:46.617Z,84.30
2018-06-11T14:04:15.675Z,84.30
2018-06-11T14:06:44.791Z,85.50
2018-06-11T14:09:13.825Z,84.80
2018-06-11T14:11:42.876Z,85.30
2018-06-11T14:14:11.914Z,84.80
2018-06-11T14:16:40.957Z,84.70
2018-06-11T14:19:09.989Z,85.50
2018-06-11T14:21:39.079Z,83.80
2018-06-11T14:24:08.098Z,84.20
2018-06-11T14:29:05.803Z,83.40
2018-06-11T14:31:34.872Z,83.30
2018-06-11T14:34:03.942Z,83.70
2018-06-11T14:36:33.008Z,83.30
2018-06-11T14:39:02.173Z,83.70
2018-06-11T14:41:31.324Z,82.30
2018-06-11T14:44:00.499Z,82.30
2018-06-11T14:46:29.563Z,81.70
2018-06-11T14:48:58.700Z,82.20
2018-06-11T14:51:27.992Z,83.30
2018-06-11T14:53:57.157Z,83.90
2018-06-11T14:56:26.309Z,84.70
2018-06-11T14:58:55.609Z,82.10
2018-06-11T15:01:25.617Z,81.60
2018-06-11T15:03:54.882Z,81.30
2018-06-11T15:06:24.119Z,80.80
2018-06-11T15:08:53.276Z,82.40
2018-06-11T15:11:22.510Z,81.90
2018-06-11T15:13:51.684Z,83.20
2018-06-11T15:16:20.816Z,83.80
2018-06-11T15:18:49.958Z,83.90
2018-06-11T15:21:19.100Z,83.70
2018-06-11T15:23:48.551Z,82.00
2018-06-11T15:26:17.636Z,80.90
2018-06-11T15:28:46.681Z,80.40
2018-06-11T15:31:15.755Z,80.80
2018-06-11T15:33:44.803Z,80.40
2018-06-11T15:36:13.869Z,80.50
2018-06-11T15:38:42.904Z,79.10
2018-06-11T15:41:12.174Z,80.60
2018-06-11T15:43:41.455Z,81.90
2018-06-11T15:46:10.604Z,81.60
2018-06-11T15:48:39.692Z,82.10
2018-06-11T15:51:09.023Z,80.90
2018-06-11T15:53:38.246Z,81.40
2018-06-11T15:56:07.313Z,82.10
2018-06-11T15:58:36.855Z,83.70
2018-06-11T16:01:06.101Z,83.80
2018-06-11T16:03:35.565Z,84.90
2018-06-11T16:06:04.985Z,84.80
2018-06-11T16:08:34.266Z,84.10
2018-06-11T16:11:03.552Z,83.30
2018-06-11T16:13:32.802Z,83.40
2018-06-11T16:16:01.894Z,82.90
2018-06-11T16:18:31.056Z,82.90
2018-06-11T16:21:00.137Z,81.20
2018-06-11T16:23:29.300Z,82.00
2018-06-11T16:28:27.044Z,83.80
2018-06-11T16:30:56.107Z,82.50
2018-06-11T16:33:25.154Z,80.50
2018-06-11T16:35:54.385Z,80.90
2018-06-11T16:38:23.483Z,81.10
2018-06-11T16:40:52.564Z,82.60
2018-06-11T16:43:21.687Z,82.10
2018-06-11T16:45:50.749Z,82.80
2018-06-11T16:48:19.824Z,82.70
2018-06-11T16:50:48.844Z,82.90
2018-06-11T16:53:17.899Z,82.80
2018-06-11T16:55:47.100Z,83.40
2018-06-11T16:58:16.341Z,84.30
2018-06-11T17:00:45.615Z,85.60
2018-06-11T17:03:14.684Z,86.30
2018-06-11T17:05:43.780Z,86.70
2018-06-11T17:08:12.857Z,87.50
2018-06-11T17:10:41.997Z,87.90
2018-06-11T17:13:11.048Z,87.70
2018-06-11T17:15:40.162Z,87.70
2018-06-11T17:18:09.261Z,88.20
2018-06-11T17:20:38.301Z,89.20
2018-06-11T17:23:07.478Z,89.70
2018-06-11T17:25:36.546Z,90.20
2018-06-11T17:28:05.826Z,90.30
2018-06-11T17:30:35.052Z,90.50
2018-06-11T17:33:04.286Z,90.80
2018-06-11T17:35:33.385Z,91.00
2018-06-11T17:38:02.451Z,91.40
2018-06-11T17:40:31.807Z,91.80
2018-06-11T17:43:01.029Z,92.10
2018-06-11T17:45:30.280Z,92.30
2018-06-11T17:47:59.421Z,92.70
2018-06-11T17:50:28.604Z,92.70
2018-06-11T17:52:57.781Z,93.00
2018-06-11T17:55:26.912Z,93.60
2018-06-11T17:57:56.047Z,93.70
2018-06-11T18:00:25.259Z,93.90
2018-06-11T18:02:54.497Z,93.90
2018-06-11T18:05:23.791Z,94.00
2018-06-11T18:07:52.992Z,94.20
2018-06-11T18:10:22.190Z,94.10
2018-06-11T18:12:51.386Z,94.60
2018-06-11T18:15:20.708Z,94.80
2018-06-11T18:17:49.994Z,94.70
2018-06-11T18:20:19.089Z,94.90
2018-06-11T18:22:48.193Z,94.90
2018-06-11T18:25:17.663Z,95.10
2018-06-11T18:27:46.743Z,95.30
2018-06-11T18:30:15.816Z,95.60
2018-06-11T18:32:44.879Z,95.70
2018-06-11T18:35:13.995Z,95.60
2018-06-11T18:37:43.239Z,96.20
2018-06-11T18:40:12.404Z,96.20
2018-06-11T18:42:41.906Z,96.20
2018-06-11T18:45:17.556Z,96.60
2018-06-11T18:47:46.622Z,96.80
2018-06-11T18:50:15.707Z,97.10
2018-06-11T18:52:44.986Z,97.30
2018-06-11T18:55:14.189Z,97.80
2018-06-11T18:57:43.410Z,97.70
2018-06-11T19:00:12.581Z,97.90
2018-06-11T19:02:41.624Z,97.90
2018-06-11T19:05:10.818Z,98.10
2018-06-11T19:07:39.898Z,98.20
2018-06-11T19:10:09.021Z,98.60
2018-06-11T19:15:07.047Z,99.10
2018-06-11T19:17:36.224Z,99.30
2018-06-11T19:20:05.874Z,99.40
2018-06-11T19:22:34.975Z,99.90
2018-06-11T19:25:04.119Z,99.90
2018-06-11T19:27:33.185Z,99.90
2018-06-11T19:30:02.391Z,99.90
2018-06-11T19:32:31.519Z,99.90
2018-06-11T19:35:00.636Z,99.90
2018-06-11T19:37:30.265Z,99.90
2018-06-11T19:39:59.396Z,99.90
2018-06-11T19:42:28.596Z,99.90
2018-06-11T19:44:57.916Z,99.90
2018-06-11T19:47:27.138Z,99.90
2018-06-11T19:49:56.294Z,99.90
2018-06-11T19:52:25.395Z,99.90
2018-06-11T19:54:54.469Z,99.90
2018-06-11T19:57:23.587Z,99.90
2018-06-11T20:02:21.535Z,99.90
2018-06-11T20:04:50.722Z,99.90
2018-06-11T20:07:19.834Z,99.90
2018-06-11T20:09:49.175Z,99.90
2018-06-11T20:12:18.385Z,99.90
2018-06-11T20:14:47.451Z,99.90
2018-06-11T20:17:16.540Z,99.90
2018-06-11T20:19:45.664Z,99.90
2018-06-11T20:22:14.927Z,99.90
2018-06-11T20:24:44.031Z,99.90
2018-06-11T20:27:13.106Z,99.90
2018-06-11T20:29:42.194Z,99.90
2018-06-11T20:32:11.247Z,99.90
2018-06-11T20:34:40.298Z,99.90
2018-06-11T20:37:09.411Z,99.90
2018-06-11T20:39:38.503Z,99.90
2018-06-11T20:42:07.592Z,99.90
2018-06-11T20:44:36.613Z,99.90
2018-06-11T20:47:05.728Z,99.90
2018-06-11T20:49:34.820Z,99.90
2018-06-11T20:52:03.916Z,99.90
2018-06-11T20:54:32.977Z,99.90
2018-06-11T20:57:02.033Z,99.90
2018-06-11T20:59:31.127Z,99.90
2018-06-11T21:02:00.238Z,99.90
2018-06-11T21:04:29.288Z,99.90
2018-06-11T21:06:58.340Z,99.90
2018-06-11T21:09:27.440Z,99.90
2018-06-11T21:11:56.592Z,99.90
2018-06-11T21:14:25.659Z,99.90
2018-06-11T21:16:54.775Z,99.90
2018-06-11T21:19:23.838Z,99.90
2018-06-11T21:21:52.915Z,99.90
2018-06-11T21:24:21.927Z,99.90
2018-06-11T21:26:50.995Z,99.90
2018-06-11T21:29:20.015Z,99.90
2018-06-11T21:34:17.715Z,99.90
2018-06-11T21:36:46.783Z,99.90
2018-06-11T21:39:15.816Z,99.90
2018-06-11T21:41:44.867Z,99.90
2018-06-11T21:44:13.907Z,99.90
2018-06-11T21:46:42.980Z,99.90
2018-06-11T21:49:12.004Z,99.90
2018-06-11T21:51:41.055Z,99.90
2018-06-11T21:54:10.068Z,99.90
2018-06-11T21:56:39.119Z,99.90
2018-06-11T21:59:08.145Z,99.90
2018-06-11T22:01:37.214Z,99.90
2018-06-11T22:04:06.394Z,99.90
2018-06-11T22:06:35.325Z,99.90
2018-06-11T22:09:07.612Z,99.90
2018-06-11T22:11:36.684Z,99.90
2018-06-11T22:14:05.728Z,99.90
2018-06-11T22:16:34.796Z,99.90
2018-06-11T22:19:03.878Z,99.90
2018-06-11T22:21:32.973Z,99.90
2018-06-11T22:24:01.991Z,99.90
2018-06-11T22:26:31.041Z,99.90
2018-06-11T22:29:00.063Z,99.90
2018-06-11T22:31:29.140Z,99.90
2018-06-11T22:33:58.175Z,99.90
2018-06-11T22:36:27.226Z,99.90
2018-06-11T22:38:56.339Z,99.90
2018-06-11T22:41:25.366Z,99.90
2018-06-11T22:43:54.424Z,99.90
2018-06-11T22:48:52.108Z,99.90
2018-06-11T22:53:49.791Z,99.90
2018-06-11T22:56:18.836Z,99.90
2018-06-11T22:58:47.847Z,99.90
2018-06-11T23:01:16.931Z,99.90
2018-06-11T23:03:45.991Z,99.90
2018-06-11T23:06:15.044Z,99.90
2018-06-11T23:08:44.107Z,99.90
2018-06-11T23:11:13.168Z,99.90
2018-06-11T23:13:42.211Z,99.90
2018-06-11T23:16:11.282Z,99.90
2018-06-11T23:18:40.332Z,99.90
2018-06-11T23:21:09.347Z,99.90
2018-06-11T23:23:38.404Z,99.90
2018-06-11T23:26:07.465Z,99.90
2018-06-11T23:28:36.516Z,99.90
2018-06-11T23:31:05.543Z,99.90
2018-06-11T23:33:34.589Z,99.90
2018-06-11T23:36:03.619Z,99.90
2018-06-11T23:38:32.668Z,99.90
2018-06-11T23:41:01.678Z,99.90
2018-06-11T23:43:30.725Z,99.90
2018-06-11T23:45:59.759Z,99.90
2018-06-11T23:48:28.811Z,99.90
2018-06-11T23:50:57.835Z,99.90
2018-06-11T23:53:26.918Z,99.90
2018-06-11T23:55:55.979Z,99.90
2018-06-11T23:58:25.075Z,99.90
